Terminal Aerodrome Forecast
Issued by NWS

Home | Current Version | Previous Version | Text Only | Print | Product List | Glossary On
Versions: 1 2 3 4 5 6 7 8 9 10 11 12 13 14 15 16 17
000
FTUS46 KHNX 201130
TAFVIS
TAF
KVIS 201130Z 2012/2112 09005KT P6SM SCT050 OVC090
     FM201700 09005KT P6SM BKN050 OVC090
     FM210200 VRB03KT P6SM SCT035 BKN050
      TEMPO 2102/2106 5SM BR BKN035
     FM210600 VRB03KT 4SM BR SCT015 BKN035
     FM210800 VRB03KT 2SM BR SCT005
      TEMPO 2108/2112 3/4SM BR BKN005=

USA.gov is the U.S. government's official web portal to all federal, state and local government web resources and services.